Time;durP1;ratioP1;P1;durP2;ratioP2;P2;SDS_P1;SDS_P2;PMS_P1;PMS_P2;Temp;Humidity;BMP_temperature;BMP_pressure;BME280_temperature;BME280_humidity;BME280_pressure;Samples;Min_cycle;Max_cycle;Signal;HPM_P1;HPM_P2
2022/09/10 00:00:12;;;;;;;8.23;2.50;;;;;;;15.92;79.91;100365.88;4098585;29;20532;-63
2022/09/10 00:02:15;;;;;;;4.38;1.35;;;;;;;15.89;79.67;100371.13;4100926;28;20073;-63
2022/09/10 00:04:18;;;;;;;2.58;1.13;;;;;;;15.92;79.76;100371.09;4098541;28;20075;-63
2022/09/10 00:06:26;;;;;;;3.72;1.55;;;;;;;15.74;80.27;100377.34;4098973;28;20035;-63
2022/09/10 00:08:29;;;;;;;6.13;1.40;;;;;;;15.82;79.91;100377.31;4099178;28;20049;-63
2022/09/10 00:10:39;;;;;;;6.28;1.60;;;;;;;15.87;79.60;100375.50;4082610;29;20142;-63
2022/09/10 00:12:42;;;;;;;4.28;1.30;;;;;;;15.82;79.67;100375.56;4098457;28;20051;-63
2022/09/10 00:14:45;;;;;;;3.88;0.90;;;;;;;15.74;79.62;100368.59;4099031;28;20035;-63
2022/09/10 00:16:48;;;;;;;7.18;1.50;;;;;;;15.78;79.38;100375.56;4098959;28;20501;-63
2022/09/10 00:18:51;;;;;;;1.88;0.93;;;;;;;15.77;79.66;100373.81;4091937;28;20094;-63
2022/09/10 00:20:56;;;;;;;4.20;1.13;;;;;;;15.79;79.69;100369.50;4100364;28;20074;-63
2022/09/10 00:22:58;;;;;;;4.07;1.33;;;;;;;15.76;79.98;100372.97;4099575;28;20043;-62
2022/09/10 00:25:01;;;;;;;2.25;0.93;;;;;;;15.85;79.29;100374.66;4097590;28;20046;-63
2022/09/10 00:27:11;;;;;;;2.40;0.90;;;;;;;15.87;79.39;100378.13;4100111;28;20382;-63
2022/09/10 00:29:17;;;;;;;3.55;1.38;;;;;;;15.84;79.41;100373.81;4093830;29;20058;-63
2022/09/10 00:31:21;;;;;;;4.15;1.15;;;;;;;15.76;79.51;100369.47;4114433;28;20139;-63
2022/09/10 00:33:24;;;;;;;2.15;0.88;;;;;;;15.78;79.23;100378.19;4098206;28;20536;-63
2022/09/10 00:35:34;;;;;;;1.45;0.90;;;;;;;15.71;79.63;100380.88;4110232;28;20030;-63
2022/09/10 00:37:37;;;;;;;4.80;1.08;;;;;;;15.74;79.43;100373.84;4098147;28;20046;-63
2022/09/10 00:39:40;;;;;;;2.17;0.90;;;;;;;15.69;79.98;100379.13;4098327;29;20326;-63
2022/09/10 00:41:46;;;;;;;1.92;0.73;;;;;;;15.64;80.08;100384.41;4098400;29;20066;-63
2022/09/10 00:43:55;;;;;;;2.05;1.00;;;;;;;15.68;80.08;100382.63;4098054;28;20042;-63
2022/09/10 00:46:01;;;;;;;3.20;0.93;;;;;;;15.70;79.96;100376.50;4099159;28;20035;-63
2022/09/10 00:48:10;;;;;;;2.47;0.90;;;;;;;15.71;79.33;100367.75;4098009;29;20047;-62
2022/09/10 00:50:20;;;;;;;1.77;0.65;;;;;;;15.76;78.96;100372.09;4108221;28;20038;-63
2022/09/10 00:52:28;;;;;;;2.95;0.93;;;;;;;15.70;78.89;100371.25;4099001;29;20523;-63
2022/09/10 00:54:34;;;;;;;1.95;0.80;;;;;;;15.78;78.73;100370.31;4096740;29;20401;-63
2022/09/10 00:56:37;;;;;;;4.93;0.93;;;;;;;15.75;79.00;100375.59;4081065;29;20043;-63
2022/09/10 00:58:42;;;;;;;1.92;0.93;;;;;;;15.71;78.86;100383.50;4097071;28;20047;-63
2022/09/10 01:00:46;;;;;;;2.30;0.93;;;;;;;15.78;78.64;100373.84;4098562;29;20035;-63
2022/09/10 01:02:49;;;;;;;;;;;;;;;15.78;78.72;100375.56;4091013;29;20055;-63
2022/09/10 01:04:54;;;;;;;2.70;1.00;;;;;;;15.78;78.39;100372.94;4096912;29;19993;-63
2022/09/10 01:06:57;;;;;;;3.33;1.17;;;;;;;15.80;79.00;100374.72;4098567;28;20500;-63
2022/09/10 01:09:01;;;;;;;2.35;1.23;;;;;;;15.82;78.80;100369.44;4098995;28;20074;-63
2022/09/10 01:11:21;;;;;;;5.93;0.85;;;;;;;15.83;78.57;100369.44;4089382;29;20131;-63
2022/09/10 01:13:40;;;;;;;4.18;1.10;;;;;;;15.76;79.45;100372.97;4095908;29;20580;-63
2022/09/10 01:15:54;;;;;;;3.67;0.93;;;;;;;15.69;79.47;100377.38;4080788;29;20050;-63
2022/09/10 01:18:10;;;;;;;6.50;1.00;;;;;;;15.69;79.08;100377.38;4097554;29;20074;-63
2022/09/10 01:20:30;;;;;;;1.02;0.90;;;;;;;15.72;78.77;100379.09;4098493;29;20086;-63
2022/09/10 01:22:48;;;;;;;3.60;1.05;;;;;;;15.79;78.78;100372.09;4096853;28;20039;-63
2022/09/10 01:24:55;;;;;;;1.27;0.60;;;;;;;15.70;78.78;100365.16;4094967;28;20132;-63
2022/09/10 01:27:31;;;;;;;1.30;0.63;;;;;;;15.68;78.98;100377.38;4075124;29;20044;-63
2022/09/10 01:29:43;;;;;;;2.42;0.77;;;;;;;15.66;78.59;100371.31;4111753;28;20529;-63
2022/09/10 01:31:52;;;;;;;3.97;0.98;;;;;;;15.69;78.34;100366.03;4096707;29;20043;-63
2022/09/10 01:34:02;;;;;;;4.95;1.38;;;;;;;15.70;79.21;100378.25;4096958;28;20039;-63
2022/09/10 01:36:11;;;;;;;5.47;1.00;;;;;;;15.79;78.50;100379.97;4086374;29;20122;-63
2022/09/10 01:38:20;;;;;;;3.70;0.90;;;;;;;15.93;77.51;100382.44;4098814;28;20102;-63
2022/09/10 01:40:28;;;;;;;6.13;1.15;;;;;;;15.83;78.37;100382.56;4096773;29;20062;-62
2022/09/10 01:42:38;;;;;;;7.30;1.30;;;;;;;15.77;79.34;100387.81;4097359;29;20516;-63
2022/09/10 01:44:46;;;;;;;1.92;0.80;;;;;;;15.76;79.35;100395.69;4098272;28;20102;-63
2022/09/10 01:47:04;;;;;;;4.47;0.88;;;;;;;15.78;79.42;100400.06;4092725;29;20039;-63
2022/09/10 01:49:24;;;;;;;1.60;0.80;;;;;;;15.79;79.26;100398.31;4095339;29;20050;-63
2022/09/10 01:51:38;;;;;;;4.70;0.90;;;;;;;15.68;79.82;100394.00;4078599;29;20099;-63
2022/09/10 01:53:58;;;;;;;2.38;0.85;;;;;;;15.73;79.87;100393.09;4087178;29;20040;-63
2022/09/10 01:56:10;;;;;;;2.17;0.85;;;;;;;15.76;79.67;100390.44;4092087;28;20564;-63
2022/09/10 01:58:20;;;;;;;6.07;1.60;;;;;;;15.77;80.04;100397.41;4112509;28;20039;-63
2022/09/10 02:00:33;;;;;;;3.95;1.02;;;;;;;15.76;79.92;100393.06;4096096;29;20457;-63
2022/09/10 02:02:41;;;;;;;2.63;1.00;;;;;;;15.77;80.22;100392.16;4096802;29;20160;-63
2022/09/10 02:04:46;;;;;;;2.05;1.17;;;;;;;15.75;80.14;100393.94;4096733;28;20039;-63
2022/09/10 02:06:51;;;;;;;3.22;1.02;;;;;;;15.69;79.98;100393.09;4082003;29;20110;-64
2022/09/10 02:08:56;;;;;;;4.40;1.20;;;;;;;15.80;79.02;100384.31;4109654;28;20655;-64
2022/09/10 02:11:05;;;;;;;3.53;0.90;;;;;;;15.73;79.63;100380.84;4097384;28;20047;-64
2022/09/10 02:13:11;;;;;;;2.35;0.85;;;;;;;15.55;79.59;100379.25;4095923;28;20472;-63
2022/09/10 02:15:27;;;;;;;2.80;1.15;;;;;;;15.46;80.59;100376.69;4096765;28;20035;-63
2022/09/10 02:17:52;;;;;;;4.72;1.05;;;;;;;15.59;79.91;100375.72;4096932;29;20059;-63
2022/09/10 02:19:55;;;;;;;3.75;1.00;;;;;;;15.48;80.47;100373.19;4093933;28;20039;-63
2022/09/10 02:21:59;;;;;;;3.72;1.40;;;;;;;15.51;80.35;100380.16;4096969;29;20082;-63
2022/09/10 02:24:05;;;;;;;8.98;1.50;;;;;;;15.60;80.35;100374.84;4095132;28;20051;-63
2022/09/10 02:26:09;;;;;;;6.07;1.20;;;;;;;15.68;79.98;100365.16;4098053;29;20055;-63
2022/09/10 02:28:12;;;;;;;6.68;1.17;;;;;;;15.69;79.89;100368.66;4095207;29;20035;-63
2022/09/10 02:30:15;;;;;;;2.45;1.00;;;;;;;15.68;79.60;100377.38;4089446;29;20050;-63
2022/09/10 02:32:18;;;;;;;2.10;1.00;;;;;;;15.63;80.70;100369.56;4098976;29;20043;-63
2022/09/10 02:34:23;;;;;;;4.95;0.88;;;;;;;15.64;80.12;100371.31;4080294;29;20040;-63
2022/09/10 02:36:26;;;;;;;;;;;;;;;15.49;80.60;100367.06;4099786;28;20126;-63
2022/09/10 02:38:29;;;;;;;4.50;1.17;;;;;;;15.61;80.39;100363.47;4099183;29;19930;-63
2022/09/10 02:40:32;;;;;;;1.58;0.80;;;;;;;15.66;80.26;100363.44;4109045;28;20144;-63
2022/09/10 02:42:37;;;;;;;5.88;1.05;;;;;;;15.67;79.82;100359.94;4108547;28;20126;-63
2022/09/10 02:44:40;;;;;;;3.83;1.10;;;;;;;15.72;79.71;100358.13;4098381;29;20054;-64
2022/09/10 02:46:43;;;;;;;5.15;1.05;;;;;;;15.77;79.77;100365.97;4099910;29;20039;-63
2022/09/10 02:48:46;;;;;;;3.55;1.08;;;;;;;15.85;79.05;100372.03;4114911;28;20070;-63
2022/09/10 02:50:50;;;;;;;1.70;0.88;;;;;;;15.84;79.30;100375.53;4094049;28;20054;-63
2022/09/10 02:52:54;;;;;;;;;;;;;;;15.72;79.54;100363.38;4117182;28;20057;-63
2022/09/10 02:54:57;;;;;;;4.22;1.35;;;;;;;15.77;79.15;100369.47;4099435;28;19922;-63
2022/09/10 02:57:00;;;;;;;1.98;0.90;;;;;;;15.81;79.72;100372.94;4110182;28;20031;-63
2022/09/10 02:59:03;;;;;;;3.00;1.30;;;;;;;15.86;79.46;100371.16;4099515;29;20039;-63
2022/09/10 03:01:08;;;;;;;7.45;1.00;;;;;;;15.80;79.11;100361.59;4099726;29;20035;-63
2022/09/10 03:03:12;;;;;;;2.05;0.82;;;;;;;15.80;79.86;100366.84;4115216;28;20493;-63
2022/09/10 03:05:15;;;;;;;2.80;1.13;;;;;;;15.82;79.40;100358.97;4098128;28;20420;-63
2022/09/10 03:07:19;;;;;;;3.25;0.90;;;;;;;15.86;79.32;100360.69;4098390;28;20532;-63
2022/09/10 03:09:23;;;;;;;7.88;0.90;;;;;;;15.87;79.22;100360.66;4099635;29;20043;-63
2022/09/10 03:11:26;;;;;;;1.75;0.90;;;;;;;15.89;79.47;100360.66;4099667;28;20122;-63
2022/09/10 03:13:29;;;;;;;3.97;1.45;;;;;;;15.95;79.66;100364.97;4081015;29;20044;-63
2022/09/10 03:15:33;;;;;;;3.47;0.93;;;;;;;15.94;79.15;100363.22;4100083;29;20046;-63
2022/09/10 03:17:36;;;;;;;2.28;0.90;;;;;;;15.90;79.94;100367.63;4099455;28;20043;-63
2022/09/10 03:19:39;;;;;;;1.98;0.65;;;;;;;15.92;79.17;100365.00;4098872;29;20071;-63
2022/09/10 03:21:44;;;;;;;2.15;0.80;;;;;;;15.93;79.11;100358.84;4115314;28;20046;-63
2022/09/10 03:23:50;;;;;;;1.90;0.70;;;;;;;15.92;79.59;100354.53;4097186;29;20039;-63
2022/09/10 03:25:58;;;;;;;2.78;0.82;;;;;;;15.90;79.02;100362.38;4083600;29;20095;-63
2022/09/10 03:28:02;;;;;;;4.20;0.80;;;;;;;15.91;79.56;100363.25;4083342;29;20039;-63
2022/09/10 03:30:06;;;;;;;2.92;0.95;;;;;;;15.84;79.72;100362.44;4082621;29;20055;-63
2022/09/10 03:32:08;;;;;;;4.72;1.35;;;;;;;15.83;79.63;100360.72;4115949;28;20046;-63
2022/09/10 03:34:14;;;;;;;4.65;0.90;;;;;;;15.78;80.18;100349.34;4098417;28;20032;-63
2022/09/10 03:36:19;;;;;;;3.03;0.85;;;;;;;15.78;80.03;100359.84;4098943;29;20065;-63
2022/09/10 03:38:24;;;;;;;2.95;1.15;;;;;;;15.69;80.51;100359.03;4083468;29;20047;-63
2022/09/10 03:40:28;;;;;;;3.47;0.90;;;;;;;15.66;79.87;100358.19;4099228;29;20070;-63
2022/09/10 03:42:31;;;;;;;4.63;1.00;;;;;;;15.67;80.68;100352.94;4098967;29;20048;-62
2022/09/10 03:44:35;;;;;;;5.57;1.27;;;;;;;15.71;80.21;100357.28;4097860;29;20047;-63
2022/09/10 03:46:38;;;;;;;1.52;0.73;;;;;;;15.65;80.46;100359.97;4097170;28;20164;-63
2022/09/10 03:48:42;;;;;;;4.10;1.23;;;;;;;15.56;80.54;100362.63;4098907;29;20563;-63
2022/09/10 03:50:45;;;;;;;0.75;0.70;;;;;;;15.63;80.32;100359.09;4114918;28;20038;-63
2022/09/10 03:52:49;;;;;;;7.35;1.23;;;;;;;15.60;80.43;100353.88;4083423;29;20099;-63
2022/09/10 03:54:54;;;;;;;1.38;0.60;;;;;;;15.64;80.42;100358.22;4090767;29;20417;-63
2022/09/10 03:57:02;;;;;;;2.55;1.00;;;;;;;15.57;80.44;100361.75;4098972;29;20497;-63
2022/09/10 03:59:06;;;;;;;4.43;1.27;;;;;;;15.54;80.41;100359.16;4109447;28;20130;-63
2022/09/10 04:01:09;;;;;;;2.75;1.30;;;;;;;15.65;80.30;100357.34;4109620;28;20055;-63
2022/09/10 04:03:16;;;;;;;1.98;0.93;;;;;;;15.69;79.88;100359.03;4082555;29;20043;-63
2022/09/10 04:05:19;;;;;;;5.43;1.17;;;;;;;15.70;79.99;100358.16;4099666;28;20032;-63
2022/09/10 04:07:23;;;;;;;2.60;1.10;;;;;;;15.68;79.92;100365.16;4099609;29;20114;-63
2022/09/10 04:09:26;;;;;;;3.05;0.98;;;;;;;15.68;80.20;100357.31;4109781;28;20039;-63
2022/09/10 04:11:29;;;;;;;2.53;0.95;;;;;;;15.60;79.85;100364.34;4112179;28;20043;-63
2022/09/10 04:13:34;;;;;;;3.90;0.95;;;;;;;15.59;80.35;100362.59;4094204;29;20031;-63
2022/09/10 04:15:37;;;;;;;;;;;;;;;15.58;80.30;100363.50;4097437;29;20078;-63
2022/09/10 04:17:40;;;;;;;6.10;0.95;;;;;;;15.56;80.60;100372.25;4097312;29;19929;-63
2022/09/10 04:19:44;;;;;;;4.35;1.50;;;;;;;15.62;80.33;100372.19;4098423;29;20043;-62
2022/09/10 04:21:48;;;;;;;5.80;1.13;;;;;;;15.59;79.90;100367.84;4098425;28;20051;-63
2022/09/10 04:23:54;;;;;;;4.53;1.10;;;;;;;15.55;80.04;100371.41;4095500;28;20067;-63
2022/09/10 04:25:56;;;;;;;;;;;;;;;15.49;80.01;100364.44;4098855;29;20039;-63
2022/09/10 04:28:00;;;;;;;4.95;1.08;;;;;;;15.58;79.87;100368.75;4099256;29;19922;-63
2022/09/10 04:30:07;;;;;;;2.63;0.90;;;;;;;15.54;80.34;100367.88;4082718;29;20430;-63
2022/09/10 04:32:10;;;;;;;2.88;1.15;;;;;;;15.54;80.38;100369.66;4113623;28;20034;-63
2022/09/10 04:34:13;;;;;;;2.38;0.75;;;;;;;15.59;80.22;100367.84;4097385;28;20047;-63
2022/09/10 04:36:16;;;;;;;2.08;1.10;;;;;;;15.66;79.80;100358.19;4099165;28;20035;-63
2022/09/10 04:38:19;;;;;;;2.20;0.95;;;;;;;15.58;80.06;100374.00;4099006;29;20091;-63
2022/09/10 04:40:23;;;;;;;2.25;1.05;;;;;;;15.58;80.34;100373.09;4098378;29;20458;-63
2022/09/10 04:42:27;;;;;;;2.30;1.00;;;;;;;15.64;79.58;100376.56;4096600;29;20035;-63
2022/09/10 04:44:31;;;;;;;4.90;1.40;;;;;;;15.67;79.38;100370.44;4095567;29;20130;-63
2022/09/10 04:46:37;;;;;;;2.13;0.98;;;;;;;15.55;80.27;100376.66;4098160;29;20040;-63
2022/09/10 04:48:44;;;;;;;2.08;0.95;;;;;;;15.54;79.79;100378.38;4097496;29;20039;-63
2022/09/10 04:50:51;;;;;;;3.75;1.25;;;;;;;15.45;80.70;100386.31;4097390;28;20047;-63
2022/09/10 04:53:16;;;;;;;1.95;0.80;;;;;;;15.37;80.48;100382.88;4097704;28;20131;-63
2022/09/10 04:55:21;;;;;;;5.95;1.25;;;;;;;15.42;80.88;100380.19;4096392;29;20047;-63
2022/09/10 04:57:24;;;;;;;9.63;1.33;;;;;;;15.52;80.79;100393.25;4098091;28;20067;-63
2022/09/10 04:59:28;;;;;;;3.65;1.10;;;;;;;15.42;80.81;100382.81;4097006;28;20456;-63
2022/09/10 05:01:31;;;;;;;4.45;1.30;;;;;;;15.50;81.17;100386.28;4114741;28;20493;-63
2022/09/10 05:03:36;;;;;;;4.85;1.10;;;;;;;15.62;80.06;100383.53;4096953;28;20045;-63
2022/09/10 05:05:42;;;;;;;5.10;1.23;;;;;;;15.59;80.33;100383.56;4097574;28;20035;-63
2022/09/10 05:07:45;;;;;;;6.40;1.75;;;;;;;15.63;80.16;100385.28;4097832;29;20043;-62
2022/09/10 05:09:47;;;;;;;4.78;1.20;;;;;;;15.61;80.65;100387.06;4098597;28;20047;-62
2022/09/10 05:11:51;;;;;;;5.95;1.25;;;;;;;15.61;80.78;100387.06;4082322;29;20592;-62
2022/09/10 05:13:55;;;;;;;3.40;1.50;;;;;;;15.64;80.65;100384.41;4093925;28;20050;-62
2022/09/10 05:16:03;;;;;;;3.97;1.17;;;;;;;15.66;80.28;100385.25;4092631;29;20114;-63
2022/09/10 05:18:08;;;;;;;4.88;1.40;;;;;;;15.66;80.39;100381.78;4082534;29;20387;-62
2022/09/10 05:20:14;;;;;;;2.53;1.10;;;;;;;15.65;80.91;100387.91;4089380;28;20048;-63
2022/09/10 05:22:24;;;;;;;4.10;1.13;;;;;;;15.69;80.31;100379.13;4079967;29;20070;-63
2022/09/10 05:24:33;;;;;;;8.63;1.60;;;;;;;15.64;80.78;100396.66;4093182;29;20046;-63
2022/09/10 05:26:39;;;;;;;3.58;1.10;;;;;;;15.70;80.45;100391.38;4096842;29;20061;-62
2022/09/10 05:28:43;;;;;;;;;;;;;;;15.61;80.65;100387.06;4083172;29;20061;-62
2022/09/10 05:30:50;;;;;;;6.40;1.30;;;;;;;15.68;80.60;100394.00;4083769;29;19929;-62
2022/09/10 05:32:56;;;;;;;1.50;0.98;;;;;;;15.61;80.54;100389.69;4091214;29;20105;-62
2022/09/10 05:35:00;;;;;;;4.40;1.33;;;;;;;15.66;81.01;100395.75;4098187;29;20560;-61
2022/09/10 05:37:07;;;;;;;2.97;1.02;;;;;;;15.73;80.26;100390.47;4096450;28;20073;-61
2022/09/10 05:39:11;;;;;;;2.22;1.02;;;;;;;15.69;80.29;100390.47;4108323;28;20039;-61
2022/09/10 05:41:14;;;;;;;5.53;0.98;;;;;;;15.68;80.24;100390.50;4111258;28;20134;-61
2022/09/10 05:43:20;;;;;;;4.82;1.02;;;;;;;15.67;80.84;100400.13;4094806;28;20038;-62
2022/09/10 05:45:24;;;;;;;2.28;1.08;;;;;;;15.62;80.69;100387.94;4096840;28;20101;-61
2022/09/10 05:47:33;;;;;;;4.63;1.40;;;;;;;15.69;80.47;100393.09;4095622;29;20073;-61
2022/09/10 05:49:37;;;;;;;3.80;1.42;;;;;;;15.66;80.63;100395.75;4105248;28;20043;-61
2022/09/10 05:51:40;;;;;;;3.40;1.20;;;;;;;15.66;80.21;100395.75;4093369;28;20035;-61
2022/09/10 05:53:45;;;;;;;3.25;1.25;;;;;;;15.76;79.97;100391.31;4097007;29;20039;-61
2022/09/10 05:55:48;;;;;;;4.03;1.30;;;;;;;15.67;80.77;100391.41;4098979;28;20090;-61
2022/09/10 05:57:51;;;;;;;6.50;1.50;;;;;;;15.66;80.74;100387.88;4098272;28;20039;-61
2022/09/10 05:59:55;;;;;;;3.55;1.27;;;;;;;15.62;81.18;100394.03;4081954;29;20044;-61
2022/09/10 06:01:59;;;;;;;5.50;1.77;;;;;;;15.67;81.10;100387.00;4082395;29;20051;-61
2022/09/10 06:04:05;;;;;;;4.68;1.60;;;;;;;15.71;80.42;100393.97;4095667;29;20203;-61
2022/09/10 06:06:09;;;;;;;1.83;1.08;;;;;;;15.61;81.02;100400.16;4081663;29;20052;-61
2022/09/10 06:08:19;;;;;;;6.10;1.38;;;;;;;15.67;80.71;100397.50;4093779;28;20047;-61
2022/09/10 06:10:27;;;;;;;1.73;1.02;;;;;;;15.69;80.94;100389.63;4093821;28;20510;-63
2022/09/10 06:12:30;;;;;;;4.65;2.00;;;;;;;15.67;80.99;100389.63;4101952;28;20045;-60
2022/09/10 06:14:34;;;;;;;3.47;1.40;;;;;;;15.77;80.73;100397.41;4099355;29;20477;-60
2022/09/10 06:16:37;;;;;;;6.32;1.52;;;;;;;15.75;81.06;100399.19;4100728;29;20094;-60
2022/09/10 06:18:42;;;;;;;5.40;1.63;;;;;;;15.70;80.81;100394.84;4099322;29;20055;-60
2022/09/10 06:20:47;;;;;;;2.55;1.02;;;;;;;15.59;80.97;100401.06;4101065;28;20390;-60
2022/09/10 06:22:51;;;;;;;3.65;1.00;;;;;;;15.59;81.54;100407.16;4116924;28;20042;-61
2022/09/10 06:24:54;;;;;;;4.55;1.30;;;;;;;15.57;81.26;100410.69;4100210;28;20050;-60
2022/09/10 06:27:00;;;;;;;6.07;1.42;;;;;;;15.64;81.56;100415.00;4100784;29;20049;-60
2022/09/10 06:29:06;;;;;;;4.30;1.30;;;;;;;15.57;82.25;100418.56;4098799;28;20058;-62
2022/09/10 06:31:13;;;;;;;3.35;1.20;;;;;;;15.62;82.14;100419.38;4097060;28;20047;-63
2022/09/10 06:33:16;;;;;;;3.13;1.08;;;;;;;15.62;81.70;100424.63;4099492;29;20437;-63
2022/09/10 06:35:20;;;;;;;9.82;1.55;;;;;;;15.66;81.65;100421.94;4099934;29;20043;-63
2022/09/10 06:37:25;;;;;;;5.07;1.20;;;;;;;15.71;81.48;100424.53;4100612;28;20045;-63
2022/09/10 06:39:30;;;;;;;1.83;0.95;;;;;;;15.71;81.73;100419.28;4112426;28;21190;-63
2022/09/10 06:41:35;;;;;;;4.80;1.40;;;;;;;15.75;81.16;100421.00;4097832;29;20126;-64
2022/09/10 06:43:49;;;;;;;4.07;1.42;;;;;;;15.75;81.25;100430.63;4094624;28;20078;-64
2022/09/10 06:46:15;;;;;;;3.60;1.20;;;;;;;15.82;81.25;100422.75;4099102;28;20071;-64
2022/09/10 06:48:44;;;;;;;2.97;1.13;;;;;;;15.74;81.55;100428.88;4098754;29;20106;-70
2022/09/10 06:50:53;;;;;;;4.65;1.35;;;;;;;15.69;81.70;100421.06;4100368;29;20513;-67
2022/09/10 06:53:01;;;;;;;2.55;1.08;;;;;;;15.68;82.19;100429.81;4079752;29;20043;-71
2022/09/10 06:55:06;;;;;;;4.40;1.40;;;;;;;15.74;82.04;100424.53;4099965;28;20122;-65
2022/09/10 06:57:15;;;;;;;6.18;1.30;;;;;;;15.80;81.24;100421.00;4110619;28;20050;-67
2022/09/10 06:59:19;;;;;;;2.20;0.98;;;;;;;15.90;81.47;100425.28;4115579;28;20067;-72
2022/09/10 07:01:24;;;;;;;3.22;1.30;;;;;;;15.94;81.32;100428.78;4099012;28;20158;-70
2022/09/10 07:03:33;;;;;;;10.32;1.63;;;;;;;15.86;81.03;100427.09;4097696;28;20051;-71
2022/09/10 07:05:36;;;;;;;2.70;1.20;;;;;;;15.95;80.99;100431.38;4081353;29;20502;-68
2022/09/10 07:07:39;;;;;;;5.22;1.33;;;;;;;15.81;81.66;100435.88;4112539;28;20038;-70
2022/09/10 07:09:43;;;;;;;2.83;1.30;;;;;;;15.76;82.27;100442.88;4097848;28;20032;-68
2022/09/10 07:11:49;;;;;;;3.13;1.52;;;;;;;15.78;82.03;100444.59;4111948;28;20298;-69
2022/09/10 07:14:00;;;;;;;4.40;1.10;;;;;;;15.79;81.58;100448.13;4112997;28;20521;-65
2022/09/10 07:16:07;;;;;;;3.40;1.10;;;;;;;15.76;82.15;100438.50;4098527;28;20167;-69
2022/09/10 07:18:13;;;;;;;3.67;1.25;;;;;;;15.81;81.83;100436.75;4095989;28;20422;-69
2022/09/10 07:20:16;;;;;;;4.82;1.73;;;;;;;15.87;81.77;100446.28;4097688;28;20539;-64
2022/09/10 07:22:21;;;;;;;3.58;1.52;;;;;;;15.97;82.10;100442.72;4082102;29;20095;-62
2022/09/10 07:24:24;;;;;;;7.03;1.83;;;;;;;15.97;81.65;100442.72;4097065;28;20050;-62
2022/09/10 07:26:35;;;;;;;2.10;1.13;;;;;;;15.97;81.70;100447.97;4096250;28;20449;-64
2022/09/10 07:28:41;;;;;;;7.53;1.50;;;;;;;15.93;81.70;100446.25;4083972;29;20048;-66
2022/09/10 07:30:46;;;;;;;4.82;1.77;;;;;;;16.04;81.44;100449.66;4111266;28;20547;-65
2022/09/10 07:32:51;;;;;;;3.65;1.30;;;;;;;16.05;81.65;100453.16;4099920;29;20071;-65
2022/09/10 07:34:58;;;;;;;5.60;1.83;;;;;;;16.09;81.65;100451.38;4096688;28;20551;-65
2022/09/10 07:37:04;;;;;;;6.00;1.30;;;;;;;16.06;81.60;100452.25;4109833;28;20047;-67
2022/09/10 07:39:10;;;;;;;4.13;1.40;;;;;;;16.11;81.42;100460.09;4099812;28;20043;-66
2022/09/10 07:41:15;;;;;;;3.33;1.15;;;;;;;16.05;81.56;100451.41;4081579;29;20134;-66
2022/09/10 07:43:18;;;;;;;5.70;1.63;;;;;;;16.00;80.81;100453.22;4112773;28;20027;-66
2022/09/10 07:45:21;;;;;;;4.20;1.40;;;;;;;15.97;80.90;100458.44;4098954;29;20042;-65
2022/09/10 07:47:26;;;;;;;3.70;1.30;;;;;;;15.95;81.11;100457.59;4104813;28;20098;-66
2022/09/10 07:49:31;;;;;;;8.32;1.83;;;;;;;16.01;81.13;100465.41;4111309;28;20575;-66
2022/09/10 07:51:34;;;;;;;3.60;1.30;;;;;;;16.00;81.89;100468.94;4095930;28;20062;-66
2022/09/10 07:53:37;;;;;;;6.47;1.65;;;;;;;16.05;81.52;100467.13;4094771;28;20106;-66
2022/09/10 07:55:58;;;;;;;4.65;1.35;;;;;;;16.08;81.14;100476.72;4105707;28;20062;-66
2022/09/10 07:58:03;;;;;;;4.68;1.40;;;;;;;16.18;81.16;100472.28;4094411;28;20122;-66
2022/09/10 08:00:13;;;;;;;7.07;1.80;;;;;;;16.25;81.23;100471.31;4080983;29;20540;-65
2022/09/10 08:02:19;;;;;;;6.47;1.90;;;;;;;16.16;81.21;100468.78;4095703;28;20043;-65
2022/09/10 08:04:32;;;;;;;5.40;1.17;;;;;;;16.23;80.97;100483.59;4095090;28;20083;-66
2022/09/10 08:06:41;;;;;;;4.25;1.33;;;;;;;16.29;80.83;100467.78;4110563;28;20478;-66
2022/09/10 08:08:44;;;;;;;4.13;1.30;;;;;;;16.33;81.22;100469.50;4075800;29;20082;-65
2022/09/10 08:10:49;;;;;;;6.60;1.65;;;;;;;16.30;80.80;100477.41;4094516;28;20039;-65
2022/09/10 08:12:52;;;;;;;5.80;1.40;;;;;;;16.34;80.99;100473.00;4107594;28;20093;-65
2022/09/10 08:14:57;;;;;;;4.53;1.65;;;;;;;16.44;80.74;100479.03;4104414;28;20130;-67
2022/09/10 08:17:01;;;;;;;4.97;1.25;;;;;;;16.45;80.48;100479.00;4112368;28;20066;-67
2022/09/10 08:19:07;;;;;;;5.88;1.70;;;;;;;16.45;80.93;100486.88;4095675;28;20331;-66
2022/09/10 08:21:12;;;;;;;9.95;2.45;;;;;;;16.58;80.18;100485.00;4099059;28;20615;-67
2022/09/10 08:23:15;;;;;;;2.90;1.33;;;;;;;16.51;80.16;100486.81;4097854;29;20094;-67
2022/09/10 08:25:20;;;;;;;4.90;1.65;;;;;;;16.52;80.25;100492.97;4087016;28;20051;-67
2022/09/10 08:27:23;;;;;;;8.65;1.73;;;;;;;16.56;80.48;100489.44;4107986;28;20058;-67
2022/09/10 08:29:27;;;;;;;5.63;1.65;;;;;;;16.62;80.47;100491.97;4109631;28;20141;-67
2022/09/10 08:31:32;;;;;;;9.13;1.85;;;;;;;16.73;79.63;100492.75;4112816;28;20042;-67
2022/09/10 08:33:48;;;;;;;4.55;1.65;;;;;;;16.67;79.83;100498.03;4098487;28;20090;-67
2022/09/10 08:35:55;;;;;;;8.75;1.70;;;;;;;16.73;79.86;100498.00;4096793;29;20133;-67
2022/09/10 08:38:00;;;;;;;4.38;1.30;;;;;;;16.63;80.10;100506.84;4097894;29;20047;-67
2022/09/10 08:40:12;;;;;;;8.25;1.90;;;;;;;16.70;80.29;100508.50;4078231;29;20047;-67
2022/09/10 08:42:22;;;;;;;6.43;1.52;;;;;;;16.71;80.23;100499.75;4105574;28;20773;-67
2022/09/10 08:44:31;;;;;;;7.15;1.92;;;;;;;16.77;80.21;100509.31;4074875;29;20079;-67
2022/09/10 08:46:43;;;;;;;4.15;1.48;;;;;;;16.82;80.48;100509.25;4097594;29;20048;-66
2022/09/10 08:48:50;;;;;;;2.25;1.40;;;;;;;16.85;80.24;100502.25;4109920;28;20140;-67
2022/09/10 08:50:57;;;;;;;3.72;1.70;;;;;;;16.95;79.88;100500.38;4093246;28;20042;-66
2022/09/10 08:53:18;;;;;;;4.60;1.90;;;;;;;16.91;79.81;100503.97;4110232;28;20607;-67
2022/09/10 08:55:25;;;;;;;5.00;1.58;;;;;;;17.00;79.48;100501.22;4102164;28;20050;-66
2022/09/10 08:57:33;;;;;;;9.35;2.17;;;;;;;16.90;79.97;100499.59;4098440;28;20204;-67
2022/09/10 08:59:43;;;;;;;5.18;1.80;;;;;;;16.79;80.45;100497.03;4086367;28;20051;-66
2022/09/10 09:01:51;;;;;;;7.22;1.60;;;;;;;16.79;79.94;100507.53;4112727;28;20049;-66
2022/09/10 09:03:56;;;;;;;7.50;1.60;;;;;;;16.78;79.68;100511.06;4094077;28;20075;-66
2022/09/10 09:06:03;;;;;;;4.35;1.63;;;;;;;16.84;79.33;100513.63;4091422;29;20552;-66
2022/09/10 09:08:26;;;;;;;4.85;1.95;;;;;;;16.78;79.58;100507.56;4096276;28;20038;-66
2022/09/10 09:10:44;;;;;;;5.65;1.40;;;;;;;16.77;79.49;100508.47;4110269;28;20641;-66
2022/09/10 09:13:06;;;;;;;6.57;1.80;;;;;;;16.80;79.67;100514.53;4097741;28;20074;-66
2022/09/10 09:15:13;;;;;;;4.10;1.83;;;;;;;16.82;79.71;100514.50;4096134;28;20483;-66
2022/09/10 09:17:43;;;;;;;9.02;1.35;;;;;;;16.86;79.56;100511.84;4110201;28;20043;-66
2022/09/10 09:20:01;;;;;;;4.07;1.50;;;;;;;16.87;79.64;100511.00;4081123;29;20418;-66
2022/09/10 09:22:13;;;;;;;6.93;1.83;;;;;;;16.98;79.30;100508.25;4106835;28;20094;-66
2022/09/10 09:24:23;;;;;;;5.75;1.60;;;;;;;17.04;79.55;100504.66;4113774;28;20123;-66
2022/09/10 09:26:34;;;;;;;8.35;2.90;;;;;;;17.19;79.42;100501.00;4097610;28;20126;-66
2022/09/10 09:28:43;;;;;;;3.85;1.50;;;;;;;17.25;79.30;100507.03;4110996;28;20043;-66
2022/09/10 09:30:49;;;;;;;4.55;1.80;;;;;;;17.31;77.95;100516.59;4097896;28;20051;-66
2022/09/10 09:33:00;;;;;;;5.43;1.60;;;;;;;17.31;78.23;100506.09;4091275;29;20044;-66
2022/09/10 09:35:11;;;;;;;2.55;1.50;;;;;;;17.44;78.38;100502.41;4097550;28;20051;-66
2022/09/10 09:37:18;;;;;;;9.50;1.80;;;;;;;17.54;77.86;100507.56;4095956;29;20054;-66
2022/09/10 09:39:27;;;;;;;5.65;2.00;;;;;;;17.60;77.74;100512.72;4097176;29;20050;-66
2022/09/10 09:41:42;;;;;;;5.38;1.50;;;;;;;17.64;77.61;100509.16;4097403;28;20086;-66
2022/09/10 09:43:54;;;;;;;6.00;2.08;;;;;;;17.54;76.88;100504.94;4097613;29;20036;-65
2022/09/10 09:45:59;;;;;;;6.38;2.53;;;;;;;17.56;76.52;100503.13;4097581;28;20047;-66
2022/09/10 09:48:06;;;;;;;7.32;1.80;;;;;;;17.61;76.94;100509.22;4097020;29;20082;-66
2022/09/10 09:50:11;;;;;;;8.68;2.05;;;;;;;17.50;75.93;100505.88;4080133;29;20056;-66